Terminal Aerodrome Forecast
Issued by NWS

Home | Current Version | Previous Version | Text Only | Print | Product List | Glossary On
Versions: 1 2 3 4 5 6 7 8 9 10 11 12 13 14 15 16 17
000
FTUS44 KCRP 220500
TAFALI
TAF
KALI 220531Z 2206/2306 16010KT P6SM SCT015 SCT024
      TEMPO 2206/2210 BKN015
     FM221000 17005KT 6SM BR SCT015
      TEMPO 2210/2214 5SM BR BKN015
     FM221500 17014G20KT P6SM FEW025
     FM222100 14018G25KT P6SM FEW060
     FM230400 16008KT P6SM SKC=

USA.gov is the U.S. government's official web portal to all federal, state and local government web resources and services.